createdAt,value
2023-06-10T00:02:04.195Z,23.05
2023-06-10T00:04:38.257Z,23.03
2023-06-10T00:07:11.317Z,23.01
2023-06-10T00:09:44.698Z,22.99
2023-06-10T00:12:25.455Z,22.82
2023-06-10T00:15:00.746Z,22.92
2023-06-10T00:17:41.050Z,22.94
2023-06-10T00:20:17.441Z,22.93
2023-06-10T00:23:03.507Z,22.90
2023-06-10T00:25:34.654Z,22.88
2023-06-10T00:28:10.434Z,22.87
2023-06-10T00:30:45.570Z,22.83
2023-06-10T00:33:21.651Z,22.85
2023-06-10T00:35:54.141Z,22.84
2023-06-10T00:38:27.724Z,22.76
2023-06-10T00:41:05.287Z,22.86
2023-06-10T00:43:39.401Z,22.84
2023-06-10T00:46:16.487Z,22.82
2023-06-10T00:48:54.560Z,22.77
2023-06-10T00:51:30.758Z,22.76
2023-06-10T00:54:06.033Z,22.73
2023-06-10T00:56:38.755Z,22.55
2023-06-10T00:59:16.344Z,22.68
2023-06-10T01:01:52.334Z,22.65
2023-06-10T01:04:29.941Z,22.61
2023-06-10T01:07:27.944Z,22.57
2023-06-10T01:10:05.208Z,22.51
2023-06-10T01:12:52.149Z,22.47
2023-06-10T01:15:34.178Z,22.44
2023-06-10T01:18:11.251Z,22.42
2023-06-10T01:20:51.468Z,22.39
2023-06-10T01:23:32.656Z,22.39
2023-06-10T01:26:15.104Z,22.35
2023-06-10T01:28:56.380Z,22.34
2023-06-10T01:31:44.001Z,22.29
2023-06-10T01:34:23.214Z,22.23
2023-06-10T01:36:57.982Z,22.16
2023-06-10T01:39:34.144Z,22.17
2023-06-10T01:42:14.344Z,22.14
2023-06-10T01:44:44.680Z,22.13
2023-06-10T01:47:16.181Z,22.08
2023-06-10T01:49:49.019Z,22.05
2023-06-10T01:52:20.297Z,21.78
2023-06-10T01:55:04.453Z,21.93
2023-06-10T01:57:44.977Z,21.88
2023-06-10T02:00:22.565Z,21.81
2023-06-10T02:03:14.879Z,21.74
2023-06-10T02:05:50.870Z,21.65
2023-06-10T02:08:25.329Z,21.59
2023-06-10T02:11:01.769Z,21.54
2023-06-10T02:13:39.075Z,21.52
2023-06-10T02:16:14.497Z,21.50
2023-06-10T02:18:49.403Z,21.48
2023-06-10T02:21:22.173Z,21.48
2023-06-10T02:24:01.328Z,21.47
2023-06-10T02:26:38.548Z,21.44
2023-06-10T02:29:12.462Z,21.35
2023-06-10T02:31:50.867Z,21.23
2023-06-10T02:34:29.951Z,21.22
2023-06-10T02:37:11.912Z,21.11
2023-06-10T02:39:43.259Z,21.11
2023-06-10T02:42:25.401Z,21.08
2023-06-10T02:44:56.789Z,21.08
2023-06-10T02:47:46.911Z,21.03
2023-06-10T02:50:26.118Z,21.02
2023-06-10T02:53:18.666Z,21.08
2023-06-10T02:55:55.462Z,21.08
2023-06-10T02:58:33.537Z,21.09
2023-06-10T03:01:09.722Z,21.11
2023-06-10T03:03:52.453Z,21.10
2023-06-10T03:06:26.608Z,21.11
2023-06-10T03:09:09.137Z,21.11
2023-06-10T03:11:42.644Z,21.08
2023-06-10T03:14:15.733Z,21.14
2023-06-10T03:16:47.446Z,21.11
2023-06-10T03:19:19.813Z,20.81
2023-06-10T03:22:14.552Z,20.50
2023-06-10T03:24:54.791Z,20.31
2023-06-10T03:27:26.640Z,20.33
2023-06-10T03:30:04.558Z,20.43
2023-06-10T03:32:38.232Z,20.40
2023-06-10T03:35:16.229Z,20.43
2023-06-10T03:37:46.735Z,20.40
2023-06-10T03:40:17.459Z,20.49
2023-06-10T03:42:57.676Z,20.45
2023-06-10T03:45:37.719Z,20.37
2023-06-10T03:48:18.474Z,20.44
2023-06-10T03:51:02.211Z,20.45
2023-06-10T03:53:33.623Z,20.50
2023-06-10T03:56:09.649Z,20.50
2023-06-10T03:58:46.750Z,20.47
2023-06-10T04:01:24.633Z,20.41
2023-06-10T04:03:55.551Z,20.35
2023-06-10T04:06:36.169Z,20.43
2023-06-10T04:09:07.275Z,20.48
2023-06-10T04:11:39.973Z,20.27
2023-06-10T04:14:15.676Z,20.32
2023-06-10T04:16:57.647Z,20.15
2023-06-10T04:19:29.905Z,20.32
2023-06-10T04:22:12.737Z,20.23
2023-06-10T04:24:43.006Z,20.50
2023-06-10T04:27:19.919Z,20.52
2023-06-10T04:29:51.505Z,20.53
2023-06-10T04:32:30.405Z,20.51
2023-06-10T04:35:00.817Z,20.60
2023-06-10T04:37:36.986Z,20.45
2023-06-10T04:40:14.461Z,20.41
2023-06-10T04:42:55.387Z,20.45
2023-06-10T04:45:26.160Z,20.49
2023-06-10T04:48:08.114Z,20.44
2023-06-10T04:50:43.251Z,20.42
2023-06-10T04:53:16.673Z,20.60
2023-06-10T04:55:57.686Z,20.66
2023-06-10T04:58:30.395Z,20.74
2023-06-10T05:01:06.775Z,20.95
2023-06-10T05:03:42.131Z,21.09
2023-06-10T05:06:16.171Z,21.22
2023-06-10T05:08:50.936Z,21.34
2023-06-10T05:11:22.496Z,21.48
2023-06-10T05:13:53.448Z,21.61
2023-06-10T05:16:23.682Z,21.70
2023-06-10T05:18:56.994Z,21.77
2023-06-10T05:21:35.634Z,21.84
2023-06-10T05:24:14.301Z,21.87
2023-06-10T05:26:50.257Z,21.94
2023-06-10T05:29:22.964Z,21.95
2023-06-10T05:32:01.735Z,22.02
2023-06-10T05:34:39.726Z,22.06
2023-06-10T05:37:18.930Z,22.14
2023-06-10T05:39:49.511Z,22.00
2023-06-10T05:42:22.003Z,22.20
2023-06-10T05:44:54.768Z,22.22
2023-06-10T05:47:28.500Z,22.35
2023-06-10T05:50:22.175Z,22.43
2023-06-10T05:52:59.395Z,22.47
2023-06-10T05:55:36.602Z,22.52
2023-06-10T05:58:15.774Z,22.58
2023-06-10T06:00:53.871Z,22.55
2023-06-10T06:03:24.706Z,22.70
2023-06-10T06:06:04.977Z,22.72
2023-06-10T06:08:40.063Z,22.85
2023-06-10T06:11:23.757Z,22.97
2023-06-10T06:13:59.654Z,22.97
2023-06-10T06:16:30.871Z,22.90
2023-06-10T06:19:07.630Z,23.05
2023-06-10T06:21:43.666Z,23.10
2023-06-10T06:24:21.939Z,23.24
2023-06-10T06:26:52.411Z,23.38
2023-06-10T06:29:22.876Z,23.41
2023-06-10T06:31:55.757Z,23.48
2023-06-10T06:34:28.330Z,23.50
2023-06-10T06:37:01.166Z,23.57
2023-06-10T06:39:41.161Z,23.69
2023-06-10T06:42:16.251Z,23.73
2023-06-10T06:45:13.183Z,23.71
2023-06-10T06:47:49.375Z,23.93
2023-06-10T06:50:22.041Z,23.96
2023-06-10T06:52:57.960Z,23.96
2023-06-10T06:55:32.829Z,24.04
2023-06-10T06:58:11.889Z,24.10
2023-06-10T07:00:43.507Z,24.09
2023-06-10T07:03:19.046Z,24.16
2023-06-10T07:05:49.329Z,24.17
2023-06-10T07:08:22.728Z,24.21
2023-06-10T07:10:53.425Z,24.26
2023-06-10T07:13:33.282Z,24.38
2023-06-10T07:16:11.099Z,24.27
2023-06-10T07:18:43.575Z,24.39
2023-06-10T07:21:15.357Z,24.44
2023-06-10T07:23:49.672Z,24.47
2023-06-10T07:26:23.331Z,24.54
2023-06-10T07:28:54.215Z,24.58
2023-06-10T07:31:26.993Z,24.60
2023-06-10T07:33:57.291Z,24.60
2023-06-10T07:36:50.912Z,24.63
2023-06-10T07:39:31.772Z,24.59
2023-06-10T07:42:09.181Z,24.55
2023-06-10T07:44:42.130Z,24.41
2023-06-10T07:47:12.776Z,24.56
2023-06-10T07:49:43.529Z,24.53
2023-06-10T07:52:16.118Z,24.38
2023-06-10T07:54:50.276Z,24.17
2023-06-10T07:57:21.073Z,24.12
2023-06-10T07:59:53.138Z,24.30
2023-06-10T08:02:30.622Z,24.37
2023-06-10T08:05:00.929Z,24.44
2023-06-10T08:07:32.358Z,24.45
2023-06-10T08:10:05.490Z,24.63
2023-06-10T08:12:38.745Z,24.64
2023-06-10T08:15:12.649Z,24.88
2023-06-10T08:17:45.847Z,24.92
2023-06-10T08:20:16.268Z,24.76
2023-06-10T08:22:46.484Z,25.02
2023-06-10T08:25:20.850Z,25.06
2023-06-10T08:27:53.508Z,25.23
2023-06-10T08:30:23.738Z,25.27
2023-06-10T08:32:57.041Z,25.36
2023-06-10T08:35:30.242Z,25.45
2023-06-10T08:38:12.383Z,25.47
2023-06-10T08:40:48.752Z,25.73
2023-06-10T08:43:41.321Z,25.77
2023-06-10T08:46:20.106Z,25.92
2023-06-10T08:48:57.312Z,25.96
2023-06-10T08:51:31.491Z,26.14
2023-06-10T08:54:08.778Z,26.22
2023-06-10T08:56:48.471Z,26.31
2023-06-10T08:59:20.784Z,26.50
2023-06-10T09:01:52.368Z,26.48
2023-06-10T09:04:24.250Z,26.36
2023-06-10T09:06:57.236Z,26.47
2023-06-10T09:09:29.857Z,26.40
2023-06-10T09:12:03.359Z,26.38
2023-06-10T09:14:33.979Z,26.47
2023-06-10T09:17:06.604Z,26.52
2023-06-10T09:19:44.073Z,26.54
2023-06-10T09:22:23.035Z,26.70
2023-06-10T09:24:53.808Z,26.79
2023-06-10T09:27:28.075Z,26.90
2023-06-10T09:29:59.635Z,26.87
2023-06-10T09:32:42.866Z,26.99
2023-06-10T09:35:13.884Z,27.12
2023-06-10T09:37:44.353Z,27.07
2023-06-10T09:40:17.245Z,27.30
2023-06-10T09:42:55.135Z,27.40
2023-06-10T09:45:26.041Z,27.47
2023-06-10T09:47:57.399Z,27.53
2023-06-10T09:50:27.919Z,27.59
2023-06-10T09:52:58.271Z,27.59
2023-06-10T09:55:29.455Z,27.57
2023-06-10T09:58:03.457Z,27.40
2023-06-10T10:00:36.410Z,27.62
2023-06-10T10:03:08.377Z,27.71
2023-06-10T10:05:38.955Z,27.77
2023-06-10T10:08:08.958Z,27.90
2023-06-10T10:10:40.201Z,27.89
2023-06-10T10:13:13.290Z,27.73
2023-06-10T10:15:46.430Z,27.87
2023-06-10T10:18:22.126Z,28.05
2023-06-10T10:20:56.558Z,28.11
2023-06-10T10:23:34.245Z,28.16
2023-06-10T10:26:11.754Z,28.09
2023-06-10T10:28:53.869Z,27.77
2023-06-10T10:31:26.028Z,27.54
2023-06-10T10:34:00.061Z,27.44
2023-06-10T10:36:31.896Z,27.22
2023-06-10T10:39:04.869Z,27.13
2023-06-10T10:41:37.094Z,27.23
2023-06-10T10:44:12.729Z,27.28
2023-06-10T10:46:55.455Z,27.37
2023-06-10T10:49:30.032Z,27.54
2023-06-10T10:52:01.750Z,27.77
2023-06-10T10:54:36.688Z,27.81
2023-06-10T10:57:22.911Z,27.77
2023-06-10T11:00:11.946Z,27.90
2023-06-10T11:02:47.539Z,27.94
2023-06-10T11:05:20.225Z,28.13
2023-06-10T11:07:58.153Z,28.17
2023-06-10T11:10:35.594Z,28.02
2023-06-10T11:13:11.272Z,28.23
2023-06-10T11:15:49.138Z,28.41
2023-06-10T11:18:28.204Z,28.60
2023-06-10T11:21:03.960Z,28.87
2023-06-10T11:23:37.619Z,29.00
2023-06-10T11:26:18.404Z,29.23
2023-06-10T11:29:09.357Z,29.34
2023-06-10T11:31:50.059Z,29.51
2023-06-10T11:34:26.068Z,29.49
2023-06-10T11:36:58.418Z,29.37
2023-06-10T11:39:28.977Z,29.05
2023-06-10T11:41:59.470Z,28.95
2023-06-10T11:44:34.837Z,28.83
2023-06-10T11:47:08.390Z,28.56
2023-06-10T11:49:38.660Z,28.57
2023-06-10T11:52:09.750Z,28.62
2023-06-10T11:54:39.990Z,28.41
2023-06-10T11:57:10.450Z,28.07
2023-06-10T11:59:42.383Z,27.84
2023-06-10T12:02:20.653Z,27.71
2023-06-10T12:04:51.323Z,27.49
2023-06-10T12:07:22.572Z,27.24
2023-06-10T12:10:18.778Z,27.19
2023-06-10T12:12:54.350Z,27.16
2023-06-10T12:15:30.307Z,27.04
2023-06-10T12:18:03.875Z,26.95
2023-06-10T12:20:36.232Z,26.56
2023-06-10T12:23:14.022Z,26.38
2023-06-10T12:25:54.401Z,26.22
2023-06-10T12:28:26.034Z,26.04
2023-06-10T12:31:10.322Z,25.95
2023-06-10T12:33:44.948Z,25.74
2023-06-10T12:36:22.386Z,25.78
2023-06-10T12:38:53.931Z,25.87
2023-06-10T12:41:24.520Z,25.89
2023-06-10T12:43:56.374Z,26.00
2023-06-10T12:46:26.666Z,26.12
2023-06-10T12:48:59.668Z,26.12
2023-06-10T12:51:30.022Z,26.40
2023-06-10T12:54:00.508Z,26.43
2023-06-10T12:56:30.898Z,26.48
2023-06-10T12:59:01.236Z,26.45
2023-06-10T13:01:32.703Z,26.62
2023-06-10T13:04:06.104Z,26.57
2023-06-10T13:06:38.647Z,26.69
2023-06-10T13:09:10.967Z,26.69
2023-06-10T13:11:41.497Z,26.83
2023-06-10T13:14:11.849Z,26.90
2023-06-10T13:16:42.413Z,27.08
2023-06-10T13:19:15.283Z,27.04
2023-06-10T13:21:45.505Z,27.07
2023-06-10T13:24:15.985Z,26.77
2023-06-10T13:26:46.298Z,26.88
2023-06-10T13:29:16.847Z,26.77
2023-06-10T13:31:47.149Z,26.94
2023-06-10T13:34:20.633Z,27.39
2023-06-10T13:36:51.032Z,27.83
2023-06-10T13:39:21.318Z,28.11
2023-06-10T13:41:51.608Z,28.31
2023-06-10T13:44:21.911Z,28.54
2023-06-10T13:46:52.524Z,28.89
2023-06-10T13:49:25.627Z,29.17
2023-06-10T13:51:57.314Z,29.16
2023-06-10T13:54:28.487Z,29.56
2023-06-10T13:56:59.056Z,29.64
2023-06-10T13:59:29.557Z,29.97
2023-06-10T14:01:59.784Z,30.19
2023-06-10T14:04:33.814Z,30.21
2023-06-10T14:07:04.327Z,30.26
2023-06-10T14:09:34.567Z,30.40
2023-06-10T14:12:04.893Z,30.62
2023-06-10T14:14:35.368Z,30.57
2023-06-10T14:17:06.360Z,30.54
2023-06-10T14:19:39.519Z,30.42
2023-06-10T14:22:11.592Z,30.52
2023-06-10T14:24:41.860Z,30.88
2023-06-10T14:27:12.508Z,31.23
2023-06-10T14:29:42.913Z,31.65
2023-06-10T14:32:13.941Z,31.69
2023-06-10T14:34:48.340Z,31.38
2023-06-10T14:37:18.614Z,31.52
2023-06-10T14:39:48.951Z,31.45
2023-06-10T14:42:19.264Z,31.06
2023-06-10T14:44:50.765Z,30.94
2023-06-10T14:47:21.165Z,31.03
2023-06-10T14:49:55.075Z,30.91
2023-06-10T14:52:25.420Z,30.95
2023-06-10T14:54:56.012Z,30.74
2023-06-10T14:57:25.941Z,30.64
2023-06-10T14:59:57.439Z,30.32
2023-06-10T15:02:28.206Z,30.07
2023-06-10T15:05:01.384Z,29.47
2023-06-10T15:07:31.709Z,29.04
2023-06-10T15:10:02.078Z,28.61
2023-06-10T15:12:32.412Z,28.55
2023-06-10T15:15:03.361Z,28.51
2023-06-10T15:17:33.853Z,28.45
2023-06-10T15:20:08.052Z,28.58
2023-06-10T15:22:38.317Z,28.58
2023-06-10T15:25:29.242Z,28.70
2023-06-10T15:28:00.327Z,28.63
2023-06-10T15:30:31.176Z,28.64
2023-06-10T15:33:01.570Z,28.58
2023-06-10T15:35:34.471Z,28.73
2023-06-10T15:38:04.889Z,28.45
2023-06-10T15:40:36.433Z,28.46
2023-06-10T15:43:06.700Z,28.39
2023-06-10T15:45:37.020Z,28.47
2023-06-10T15:48:07.997Z,28.72
2023-06-10T15:50:41.071Z,29.00
2023-06-10T15:53:11.386Z,29.34
2023-06-10T15:55:41.679Z,29.56
2023-06-10T15:58:12.533Z,29.64
2023-06-10T16:00:43.025Z,29.93
2023-06-10T16:03:13.705Z,29.83
2023-06-10T16:05:46.820Z,29.81
2023-06-10T16:08:17.859Z,29.75
2023-06-10T16:10:48.414Z,29.77
2023-06-10T16:13:18.427Z,29.75
2023-06-10T16:15:49.050Z,29.65
2023-06-10T16:18:19.326Z,29.62
2023-06-10T16:20:52.745Z,29.49
2023-06-10T16:23:22.995Z,29.20
2023-06-10T16:25:53.573Z,29.12
2023-06-10T16:28:23.556Z,29.20
2023-06-10T16:30:54.050Z,29.18
2023-06-10T16:33:24.800Z,29.13
2023-06-10T16:35:58.084Z,29.01
2023-06-10T16:38:28.648Z,28.90
2023-06-10T16:40:59.076Z,28.81
2023-06-10T16:43:30.210Z,28.78
2023-06-10T16:46:00.714Z,28.77
2023-06-10T16:48:31.154Z,28.67
2023-06-10T16:51:04.677Z,28.68
2023-06-10T16:53:34.905Z,28.51
2023-06-10T16:56:05.471Z,28.65
2023-06-10T16:58:35.873Z,28.57
2023-06-10T17:01:08.493Z,28.58
2023-06-10T17:03:40.697Z,28.43
2023-06-10T17:06:13.552Z,28.24
2023-06-10T17:08:43.840Z,28.12
2023-06-10T17:11:14.240Z,28.32
2023-06-10T17:13:45.801Z,28.39
2023-06-10T17:16:16.697Z,28.46
2023-06-10T17:18:47.012Z,28.51
2023-06-10T17:21:20.303Z,28.40
2023-06-10T17:23:51.317Z,28.58
2023-06-10T17:26:21.952Z,28.54
2023-06-10T17:28:52.608Z,28.60
2023-06-10T17:31:22.592Z,28.64
2023-06-10T17:33:53.095Z,28.74
2023-06-10T17:36:26.337Z,28.70
2023-06-10T17:38:56.604Z,28.57
2023-06-10T17:41:27.477Z,28.45
2023-06-10T17:43:57.705Z,28.24
2023-06-10T17:46:28.044Z,28.24
2023-06-10T17:48:58.464Z,28.00
2023-06-10T17:51:31.507Z,27.97
2023-06-10T17:54:02.082Z,27.84
2023-06-10T17:56:32.079Z,27.80
2023-06-10T17:59:02.579Z,27.61
2023-06-10T18:01:34.090Z,27.55
2023-06-10T18:04:08.166Z,27.56
2023-06-10T18:06:41.321Z,27.47
2023-06-10T18:09:12.924Z,27.36
2023-06-10T18:11:43.337Z,27.13
2023-06-10T18:14:13.885Z,26.94
2023-06-10T18:16:44.477Z,26.75
2023-06-10T18:19:16.168Z,26.66
2023-06-10T18:21:49.148Z,26.53
2023-06-10T18:24:19.700Z,26.34
2023-06-10T18:26:50.588Z,26.33
2023-06-10T18:29:20.636Z,26.28
2023-06-10T18:31:50.951Z,26.15
2023-06-10T18:34:21.329Z,26.04
2023-06-10T18:36:54.260Z,25.86
2023-06-10T18:39:24.548Z,25.71
2023-06-10T18:41:54.925Z,25.42
2023-06-10T18:44:25.381Z,25.51
2023-06-10T18:46:55.669Z,25.45
2023-06-10T18:49:26.065Z,25.32
2023-06-10T18:51:59.078Z,25.30
2023-06-10T18:54:30.801Z,25.15
2023-06-10T18:57:02.217Z,25.09
2023-06-10T18:59:32.529Z,24.95
2023-06-10T19:02:03.172Z,24.99
2023-06-10T19:04:33.399Z,25.02
2023-06-10T19:07:06.601Z,24.99
2023-06-10T19:09:37.142Z,25.05
2023-06-10T19:12:08.562Z,25.00
2023-06-10T19:14:41.535Z,25.05
2023-06-10T19:17:12.167Z,25.04
2023-06-10T19:19:42.668Z,24.93
2023-06-10T19:22:15.718Z,24.89
2023-06-10T19:24:48.070Z,24.46
2023-06-10T19:27:18.545Z,24.55
2023-06-10T19:29:48.965Z,24.41
2023-06-10T19:32:19.241Z,24.39
2023-06-10T19:34:49.981Z,24.39
2023-06-10T19:37:23.218Z,24.42
2023-06-10T19:39:53.607Z,24.39
2023-06-10T19:42:24.467Z,24.36
2023-06-10T19:44:54.751Z,24.37
2023-06-10T19:47:25.273Z,24.33
2023-06-10T19:49:55.532Z,24.15
2023-06-10T19:52:29.177Z,24.38
2023-06-10T19:54:59.428Z,24.42
2023-06-10T19:57:29.998Z,24.45
2023-06-10T20:00:00.499Z,24.43
2023-06-10T20:02:32.410Z,24.16
2023-06-10T20:05:02.955Z,24.37
2023-06-10T20:07:36.353Z,24.26
2023-06-10T20:10:07.289Z,24.27
2023-06-10T20:12:37.617Z,24.26
2023-06-10T20:15:08.952Z,24.23
2023-06-10T20:17:39.477Z,24.16
2023-06-10T20:20:11.042Z,24.15
2023-06-10T20:22:43.899Z,24.14
2023-06-10T20:25:15.224Z,24.15
2023-06-10T20:27:45.884Z,24.10
2023-06-10T20:30:17.977Z,23.83
2023-06-10T20:32:48.464Z,23.90
2023-06-10T20:35:18.924Z,23.80
2023-06-10T20:37:52.988Z,23.77
2023-06-10T20:40:23.245Z,23.77
2023-06-10T20:42:53.692Z,23.75
2023-06-10T20:45:26.835Z,23.59
2023-06-10T20:47:57.198Z,23.70
2023-06-10T20:50:27.459Z,23.70
2023-06-10T20:53:00.491Z,23.74
2023-06-10T20:55:31.563Z,23.55
2023-06-10T20:58:01.875Z,23.58
2023-06-10T21:00:35.208Z,23.51
2023-06-10T21:03:07.598Z,23.32
2023-06-10T21:05:40.059Z,23.49
2023-06-10T21:08:19.787Z,23.35
2023-06-10T21:10:56.612Z,23.37
2023-06-10T21:13:27.189Z,23.23
2023-06-10T21:15:57.992Z,23.15
2023-06-10T21:18:35.545Z,23.32
2023-06-10T21:21:06.375Z,23.22
2023-06-10T21:23:39.151Z,23.22
2023-06-10T21:26:11.604Z,23.20
2023-06-10T21:28:43.029Z,23.19
2023-06-10T21:31:16.271Z,23.19
2023-06-10T21:33:46.842Z,23.20
2023-06-10T21:36:19.438Z,23.13
2023-06-10T21:38:52.858Z,23.13
2023-06-10T21:41:23.697Z,23.12
2023-06-10T21:43:54.991Z,23.14
2023-06-10T21:46:30.110Z,23.12
2023-06-10T21:49:09.064Z,22.90
2023-06-10T21:51:39.283Z,23.07
2023-06-10T21:54:12.708Z,23.03
2023-06-10T21:56:48.044Z,22.97
2023-06-10T21:59:19.227Z,22.96
2023-06-10T22:01:55.336Z,22.99
2023-06-10T22:04:27.328Z,22.94
2023-06-10T22:06:57.891Z,22.87
2023-06-10T22:09:31.964Z,22.78
2023-06-10T22:12:02.492Z,22.83
2023-06-10T22:14:34.915Z,22.82
2023-06-10T22:17:05.504Z,22.79
2023-06-10T22:19:39.806Z,22.76
2023-06-10T22:22:12.460Z,22.66
2023-06-10T22:24:53.290Z,22.75
2023-06-10T22:27:30.082Z,22.65
2023-06-10T22:30:02.526Z,22.53
2023-06-10T22:32:33.316Z,22.71
2023-06-10T22:35:07.298Z,22.67
2023-06-10T22:37:39.312Z,22.65
2023-06-10T22:40:13.914Z,22.67
2023-06-10T22:42:44.123Z,22.60
2023-06-10T22:45:20.048Z,22.71
2023-06-10T22:47:50.635Z,22.68
2023-06-10T22:50:23.413Z,22.66
2023-06-10T22:52:57.187Z,22.67
2023-06-10T22:55:30.256Z,22.55
2023-06-10T22:58:01.811Z,22.62
2023-06-10T23:00:33.762Z,22.61
2023-06-10T23:03:04.162Z,22.50
2023-06-10T23:05:37.023Z,22.59
2023-06-10T23:08:07.704Z,22.60
2023-06-10T23:10:41.655Z,22.60
2023-06-10T23:13:12.331Z,22.48
2023-06-10T23:15:44.966Z,22.52
2023-06-10T23:18:18.412Z,22.45
2023-06-10T23:20:52.262Z,22.41
2023-06-10T23:23:33.918Z,22.42
2023-06-10T23:26:08.219Z,22.17
2023-06-10T23:28:43.261Z,22.38
2023-06-10T23:31:13.738Z,22.36
2023-06-10T23:33:47.777Z,22.35
2023-06-10T23:36:18.191Z,22.24
2023-06-10T23:38:52.593Z,22.25
2023-06-10T23:41:25.933Z,22.29
2023-06-10T23:43:56.289Z,22.22
2023-06-10T23:46:26.834Z,22.12
2023-06-10T23:48:57.457Z,22.14
2023-06-10T23:51:28.134Z,22.11
2023-06-10T23:53:59.661Z,22.04
2023-06-10T23:56:32.877Z,21.94
2023-06-10T23:59:03.376Z,22.00
